Список аэропортов
Фактическая погода:

21 августа, 06:00
Температура: +13°C (+12.7*)
Ветер: южный 2 м/с
Давление: *761 мм
неб. облачность
кучево-дождевые 810 м
Время (МСК)Темп. СВетерВлажностьДавлениеОблачностьОсадки
03:00+14ЮВ, 1 м/с98%1015 гПаоблачно
04:00+14ЮВ, 1 м/с98%1015 гПаоблачно
05:00+13Ю, 2 м/с99%1015 гПаоблачно
06:00+13Ю, 2 м/с98%1014 гПас прояснениями
07:00+13Ю, 2 м/с99%1014 гПас прояснениями
08:00+14ЮЗ, 3 м/с98%1014 гПас прояснениями
09:00+15ЮЗ, 3 м/с95%1014 гПамалооблачно
10:00+16ЮЗ, 4 м/с91%1014 гПаоблачносл. дождь
11:00+16ЮЗ, 4 м/с92%1014 гПаоблачнодождь
12:00+16ЮЗ, 4 м/с92%1014 гПаоблачнодождь
13:00+16ЮЗ, 4 м/с92%1014 гПаоблачнодождь
14:00+16ЮЗ, 4 м/с92%1014 гПаоблачнодождь
15:00+16З, 4 м/с92%1014 гПаоблачнодождь
16:00+16З, 3 м/с92%1013 гПаоблачнодождь
17:00+16З, 3 м/с92%1013 гПаоблачнодождь
18:00+16З, 2 м/с93%1013 гПаоблачнодождь
19:00+15ЮЗ, 2 м/с94%1013 гПаоблачнодождь
20:00+15ЮЗ, 2 м/с93%1013 гПас прояснениями
21:00+14Ю, 1 м/с97%1013 гПаоблачно
22:00+13Ю, 1 м/с98%1013 гПаоблачно
23:00+13Ю, 1 м/с99%1013 гПаоблачно
22 августа
00:00+13Ю, 1 м/с99%1013 гПаоблачно
01:00+13Ю, 1 м/с99%1013 гПаоблачно
02:00+12Ю, 1 м/с100%1013 гПас прояснениями
03:00+11Штиль 100%1013 гПаоблачно
04:00+11Штиль 100%1012 гПаоблачно
05:00+10Штиль 99%1012 гПаоблачносл. дождь
06:00+10Штиль 99%1013 гПаоблачнодождь
07:00+10З, 1 м/с98%1013 гПаоблачносл. дождь
08:00+12З, 1 м/с96%1013 гПаоблачно
09:00+15СЗ, 1 м/с96%1013 гПаоблачно
10:00+16СЗ, 2 м/с86%1013 гПаоблачно
11:00+17СЗ, 3 м/с86%1013 гПаоблачнодождь
12:00+17СЗ, 3 м/с82%1013 гПас прояснениямисл. дождь
13:00+18СЗ, 3 м/с76%1013 гПаоблачнодождь
14:00+18СЗ, 4 м/с83%1013 гПаоблачнодождь
15:00+17СЗ, 4 м/с87%1013 гПаоблачнодождь
16:00+18СЗ, 4 м/с77%1013 гПаоблачносл. дождь
17:00+19СЗ, 5 м/с70%1013 гПаоблачно
18:00+17СЗ, 4 м/с90%1013 гПаоблачнодождь
19:00+16СЗ, 5 м/с90%1013 гПаоблачнодождь
20:00+16СЗ, 4 м/с91%1014 гПаоблачнодождь
21:00+16СЗ, 4 м/с92%1014 гПаоблачнодождь
22:00+16СЗ, 4 м/с90%1014 гПас прояснениямидождь
23:00+16СЗ, 5 м/с91%1014 гПаоблачнодождь
23 августа
00:00+16С, 5 м/с91%1014 гПаоблачнодождь
01:00+16С, 5 м/с92%1014 гПаоблачнодождь
02:00+15С, 5 м/с93%1014 гПаоблачнодождь
03:00+15С, 5 м/с93%1014 гПаоблачнодождь